Time;durP1;ratioP1;P1;durP2;ratioP2;P2;SDS_P1;SDS_P2;PMS_P1;PMS_P2;Temp;Humidity;BMP_temperature;BMP_pressure;BME280_temperature;BME280_humidity;BME280_pressure;Samples;Min_cycle;Max_cycle;Signal;HPM_P1;HPM_P2
2022/09/10 00:00:27;;;;;;;10.37;9.87;;;16.70;48.80;;;;;;4992746;28;20174;-49
2022/09/10 00:02:53;;;;;;;10.70;10.40;;;16.90;47.90;;;;;;4992830;28;20463;-48
2022/09/10 00:05:20;;;;;;;10.57;10.20;;;17.00;48.20;;;;;;4992872;28;20269;-48
2022/09/10 00:07:46;;;;;;;10.97;10.47;;;17.00;48.70;;;;;;4992637;28;20174;-49
2022/09/10 00:10:12;;;;;;;11.60;10.97;;;17.00;47.80;;;;;;4992423;28;20416;-49
2022/09/10 00:12:38;;;;;;;11.07;10.77;;;17.10;47.80;;;;;;4992249;28;20421;-51
2022/09/10 00:15:05;;;;;;;11.00;10.70;;;17.10;46.90;;;;;;4992538;28;20316;-48
2022/09/10 00:17:31;;;;;;;11.03;10.53;;;17.00;45.60;;;;;;4992410;28;20791;-48
2022/09/10 00:19:58;;;;;;;10.57;10.27;;;17.10;46.60;;;;;;4992515;28;20976;-49
2022/09/10 00:22:24;;;;;;;11.97;11.37;;;17.10;45.90;;;;;;4992381;28;20443;-50
2022/09/10 00:24:55;;;;;;;11.40;11.00;;;17.10;46.20;;;;;;4992347;28;20420;-47
2022/09/10 00:27:20;;;;;;;11.77;11.27;;;17.10;46.30;;;;;;4992331;28;20500;-47
2022/09/10 00:29:49;;;;;;;11.07;10.77;;;17.10;44.80;;;;;;4992377;28;20444;-52
2022/09/10 00:32:15;;;;;;;10.60;10.20;;;17.20;44.40;;;;;;4992186;28;20197;-48
2022/09/10 00:34:40;;;;;;;11.40;11.07;;;17.30;44.60;;;;;;4992419;28;20413;-48
2022/09/10 00:37:06;;;;;;;11.57;11.07;;;17.20;41.70;;;;;;4992359;28;20174;-49
2022/09/10 00:39:31;;;;;;;11.70;11.40;;;17.00;43.30;;;;;;4992368;28;20209;-48
2022/09/10 00:41:57;;;;;;;12.03;11.63;;;16.90;43.00;;;;;;4991805;28;20185;-49
2022/09/10 00:44:41;;;;;;;11.57;11.13;;;16.90;44.10;;;;;;4992080;28;20706;-50
2022/09/10 00:47:11;;;;;;;11.60;11.30;;;16.80;43.80;;;;;;4991978;28;20293;-47
2022/09/10 00:50:02;;;;;;;12.00;11.60;;;16.90;43.20;;;;;;4992027;28;20421;-48
2022/09/10 00:52:28;;;;;;;11.50;11.20;;;16.90;43.60;;;;;;4991997;28;20413;-48
2022/09/10 00:54:55;;;;;;;11.57;11.07;;;16.90;43.20;;;;;;4991737;28;20932;-49
2022/09/10 00:57:22;;;;;;;10.90;10.60;;;17.00;43.90;;;;;;4991861;28;20182;-52
2022/09/10 00:59:54;;;;;;;10.93;10.53;;;17.10;44.30;;;;;;4991669;28;20415;-51
2022/09/10 01:02:20;;;;;;;11.03;10.73;;;17.10;43.70;;;;;;4991795;28;20909;-50
2022/09/10 01:04:46;;;;;;;11.10;10.80;;;17.00;43.30;;;;;;4991572;28;20516;-48
2022/09/10 01:07:13;;;;;;;11.77;10.97;;;17.00;43.60;;;;;;4990994;28;20209;-48
2022/09/10 01:09:39;;;;;;;11.30;10.90;;;17.00;45.10;;;;;;4989898;28;20416;-52
2022/09/10 01:12:33;;;;;;;11.30;10.83;;;16.90;45.80;;;;;;4990261;28;20504;-50
2022/09/10 01:15:44;;;;;;;11.20;10.80;;;16.80;45.80;;;;;;4992611;28;20409;-52
2022/09/10 01:18:30;;;;;;;11.20;10.90;;;16.80;45.10;;;;;;4950401;29;20418;-49
2022/09/10 01:21:09;;;;;;;10.70;10.30;;;16.90;44.60;;;;;;4950710;29;20450;-49
2022/09/10 01:23:53;;;;;;;11.00;10.70;;;17.00;44.10;;;;;;4976117;28;20405;-48
2022/09/10 01:26:37;;;;;;;10.90;10.60;;;17.10;43.40;;;;;;4991323;28;20978;-48
2022/09/10 01:29:32;;;;;;;11.30;11.00;;;17.10;43.90;;;;;;4991407;28;20571;-49
2022/09/10 01:32:14;;;;;;;10.97;10.67;;;16.90;45.40;;;;;;4991065;28;20420;-49
2022/09/10 01:34:53;;;;;;;11.10;10.77;;;16.90;45.00;;;;;;4991336;28;20413;-48
2022/09/10 01:37:24;;;;;;;10.70;10.40;;;16.80;45.00;;;;;;4991405;28;20452;-52
2022/09/10 01:39:52;;;;;;;11.87;11.27;;;16.90;44.50;;;;;;4991320;28;20793;-52
2022/09/10 01:42:18;;;;;;;11.17;10.87;;;16.80;46.50;;;;;;4991172;28;20405;-50
2022/09/10 01:44:48;;;;;;;10.43;10.13;;;16.70;46.50;;;;;;4991058;28;20429;-49
2022/09/10 01:47:20;;;;;;;10.20;9.90;;;16.90;46.70;;;;;;4991147;28;20263;-49
2022/09/10 01:50:24;;;;;;;10.77;10.40;;;17.10;47.30;;;;;;4992513;28;20465;-55
2022/09/10 01:53:01;;;;;;;11.40;11.00;;;17.00;45.00;;;;;;4935257;29;20515;-49
2022/09/10 01:55:36;;;;;;;10.80;10.43;;;16.90;45.20;;;;;;4935559;29;20775;-47
2022/09/10 01:58:33;;;;;;;11.30;10.90;;;16.90;45.20;;;;;;4967780;28;20420;-48
2022/09/10 02:01:17;;;;;;;11.17;10.80;;;16.70;45.30;;;;;;4990995;28;20417;-50
2022/09/10 02:03:46;;;;;;;11.17;10.83;;;16.70;46.90;;;;;;4991276;28;20495;-50
2022/09/10 02:06:16;;;;;;;10.70;10.40;;;16.80;45.80;;;;;;4991098;28;20475;-47
2022/09/10 02:08:44;;;;;;;11.30;10.70;;;16.90;45.70;;;;;;4991027;28;20472;-51
2022/09/10 02:11:13;;;;;;;11.27;10.97;;;17.00;45.70;;;;;;4990918;28;20425;-50
2022/09/10 02:13:41;;;;;;;11.27;10.97;;;16.80;45.90;;;;;;4990855;28;20410;-48
2022/09/10 02:16:14;;;;;;;11.57;11.17;;;16.80;47.60;;;;;;4990919;28;20444;-52
2022/09/10 02:18:41;;;;;;;11.40;10.90;;;16.70;47.50;;;;;;4990828;28;20463;-49
2022/09/10 02:21:09;;;;;;;10.87;10.57;;;16.80;47.30;;;;;;4990763;28;20453;-49
2022/09/10 02:23:45;;;;;;;10.83;10.53;;;16.60;47.40;;;;;;4990874;28;20499;-53
2022/09/10 02:26:13;;;;;;;10.90;10.50;;;16.50;48.60;;;;;;4990889;28;20463;-49
2022/09/10 02:28:39;;;;;;;11.10;10.70;;;16.40;50.30;;;;;;4990907;28;20413;-48
2022/09/10 02:31:05;;;;;;;11.07;10.57;;;16.40;50.30;;;;;;4990808;28;20417;-51
2022/09/10 02:33:30;;;;;;;10.37;9.77;;;16.40;50.30;;;;;;4990355;28;20478;-48
2022/09/10 02:35:57;;;;;;;9.97;9.47;;;16.60;50.50;;;;;;4993349;28;20224;-52
2022/09/10 02:38:23;;;;;;;10.60;10.30;;;16.70;48.90;;;;;;4994454;28;20182;-49
2022/09/10 02:40:48;;;;;;;10.40;10.00;;;16.60;49.10;;;;;;4993880;28;20505;-47
2022/09/10 02:43:16;;;;;;;10.77;10.20;;;16.60;50.30;;;;;;4994264;28;20178;-49
2022/09/10 02:45:41;;;;;;;11.00;10.60;;;16.60;49.90;;;;;;4994130;28;20683;-52
2022/09/10 02:48:07;;;;;;;10.60;10.20;;;16.60;48.70;;;;;;4994177;28;20409;-47
2022/09/10 02:50:34;;;;;;;10.90;10.50;;;16.50;49.90;;;;;;4993893;28;20178;-49
2022/09/10 02:53:02;;;;;;;10.60;10.20;;;16.50;50.40;;;;;;4993894;28;20631;-49
2022/09/10 02:55:28;;;;;;;10.30;9.90;;;16.60;50.40;;;;;;4993972;28;20428;-48
2022/09/10 02:57:54;;;;;;;10.67;10.23;;;16.60;50.10;;;;;;4993951;28;20918;-49
2022/09/10 03:00:20;;;;;;;11.00;10.60;;;16.60;50.00;;;;;;4993927;28;20186;-49
2022/09/10 03:02:46;;;;;;;10.87;10.27;;;16.60;50.20;;;;;;4993721;28;20412;-52
2022/09/10 03:05:13;;;;;;;10.30;9.90;;;16.60;50.40;;;;;;4993773;28;20933;-50
2022/09/10 03:07:39;;;;;;;9.93;9.63;;;16.80;50.00;;;;;;4995090;28;20426;-53
2022/09/10 03:10:05;;;;;;;11.47;10.73;;;16.80;49.80;;;;;;4993096;28;20425;-52
2022/09/10 03:12:31;;;;;;;10.27;9.97;;;16.90;50.70;;;;;;4993692;28;20177;-51
2022/09/10 03:14:57;;;;;;;10.33;10.03;;;17.10;50.50;;;;;;4993612;28;20957;-51
2022/09/10 03:17:24;;;;;;;10.63;10.23;;;17.10;49.20;;;;;;4993576;28;20437;-51
2022/09/10 03:19:50;;;;;;;10.90;10.60;;;17.10;49.40;;;;;;4993149;28;20449;-49
2022/09/10 03:22:16;;;;;;;11.60;11.20;;;16.90;48.80;;;;;;4993470;28;20460;-53
2022/09/10 03:24:42;;;;;;;11.33;11.00;;;16.80;48.70;;;;;;4993425;28;20174;-53
2022/09/10 03:27:08;;;;;;;11.30;10.90;;;16.80;49.70;;;;;;4994705;28;20210;-52
2022/09/10 03:29:35;;;;;;;11.10;10.80;;;16.90;49.10;;;;;;4993392;28;20428;-51
2022/09/10 03:32:01;;;;;;;10.83;10.53;;;16.90;48.70;;;;;;4992918;28;20437;-51
2022/09/10 03:34:27;;;;;;;11.13;10.83;;;16.90;49.40;;;;;;4993392;28;20417;-52
2022/09/10 03:36:53;;;;;;;10.73;10.43;;;17.00;49.50;;;;;;4993315;28;20801;-51
2022/09/10 03:39:19;;;;;;;11.00;10.63;;;17.10;49.70;;;;;;4992947;28;20911;-53
2022/09/10 03:41:45;;;;;;;11.30;10.90;;;17.00;49.60;;;;;;4992921;28;20440;-53
2022/09/10 03:44:11;;;;;;;11.50;10.97;;;17.20;49.60;;;;;;4993229;28;20421;-49
2022/09/10 03:46:37;;;;;;;11.30;10.90;;;17.00;48.10;;;;;;4992985;28;20472;-52
2022/09/10 03:49:06;;;;;;;11.30;10.90;;;17.00;48.70;;;;;;4992493;28;20416;-52
2022/09/10 03:51:33;;;;;;;11.13;10.73;;;17.00;49.20;;;;;;4992839;28;20417;-53
2022/09/10 03:53:59;;;;;;;10.97;10.67;;;16.90;49.20;;;;;;4992910;28;20445;-49
2022/09/10 03:56:25;;;;;;;11.40;10.97;;;16.80;48.20;;;;;;4992796;28;20453;-53
2022/09/10 03:58:51;;;;;;;11.33;10.60;;;16.80;48.70;;;;;;4992428;28;20869;-53
2022/09/10 04:01:17;;;;;;;11.30;10.80;;;16.70;49.90;;;;;;4992623;28;20417;-49
2022/09/10 04:03:43;;;;;;;11.47;10.93;;;16.60;50.60;;;;;;4992605;28;20181;-49
2022/09/10 04:06:10;;;;;;;11.17;10.70;;;16.50;51.20;;;;;;4992730;28;20884;-48
2022/09/10 04:08:36;;;;;;;10.90;10.57;;;16.40;51.00;;;;;;4992636;28;20460;-51
2022/09/10 04:11:03;;;;;;;10.87;10.40;;;16.40;51.60;;;;;;4992719;28;20418;-49
2022/09/10 04:13:30;;;;;;;11.87;11.47;;;16.50;51.80;;;;;;4993100;28;20417;-51
2022/09/10 04:15:56;;;;;;;11.67;11.27;;;16.40;51.10;;;;;;4992595;28;20441;-49
2022/09/10 04:18:22;;;;;;;10.77;10.43;;;16.30;50.40;;;;;;4992487;28;20428;-51
2022/09/10 04:20:48;;;;;;;10.90;10.60;;;16.30;52.10;;;;;;4992078;28;20417;-47
2022/09/10 04:24:03;;;;;;;10.83;10.33;;;16.30;52.20;;;;;;4992591;28;20588;-48
2022/09/10 04:26:29;;;;;;;10.77;10.37;;;16.40;51.70;;;;;;4992469;28;20535;-48
2022/09/10 04:28:55;;;;;;;10.83;10.43;;;16.40;50.70;;;;;;4992126;28;20837;-47
2022/09/10 04:31:21;;;;;;;11.00;10.60;;;16.40;50.70;;;;;;4992131;28;20646;-49
2022/09/10 04:33:47;;;;;;;11.30;10.80;;;16.50;50.20;;;;;;4992375;28;20752;-48
2022/09/10 04:36:13;;;;;;;10.77;10.47;;;16.40;50.00;;;;;;4992208;28;20177;-47
2022/09/10 04:38:40;;;;;;;11.60;11.20;;;16.40;50.50;;;;;;4992007;28;21124;-47
2022/09/10 04:41:06;;;;;;;10.10;9.80;;;16.50;50.30;;;;;;4991768;28;20436;-51
2022/09/10 04:43:32;;;;;;;11.03;10.73;;;16.60;50.00;;;;;;4991988;28;20531;-51
2022/09/10 04:45:58;;;;;;;11.10;10.80;;;16.60;49.10;;;;;;4991621;28;20504;-51
2022/09/10 04:48:24;;;;;;;11.10;10.80;;;16.70;49.20;;;;;;4992106;28;20538;-51
2022/09/10 04:50:50;;;;;;;11.00;10.60;;;16.70;48.50;;;;;;4991731;28;20651;-54
2022/09/10 04:53:17;;;;;;;11.67;11.07;;;16.80;48.50;;;;;;4991960;28;20419;-53
2022/09/10 04:55:45;;;;;;;11.03;10.73;;;16.70;48.30;;;;;;4987916;28;20675;-50
2022/09/10 04:58:12;;;;;;;12.10;11.60;;;16.80;48.80;;;;;;4991753;28;20789;-53
2022/09/10 05:00:38;;;;;;;12.10;11.67;;;16.70;47.50;;;;;;4990257;28;20432;-51
2022/09/10 05:03:04;;;;;;;11.60;11.30;;;16.60;48.00;;;;;;4991663;28;20825;-53
2022/09/10 05:05:31;;;;;;;11.53;11.03;;;16.40;47.70;;;;;;4991399;28;20428;-53
2022/09/10 05:07:58;;;;;;;10.97;10.67;;;16.40;49.50;;;;;;4991447;28;20432;-53
2022/09/10 05:10:26;;;;;;;11.77;11.37;;;16.40;48.90;;;;;;4990907;28;20464;-52
2022/09/10 05:12:52;;;;;;;12.03;11.57;;;16.50;49.30;;;;;;4991382;28;20426;-51
2022/09/10 05:15:17;;;;;;;11.50;11.00;;;16.40;48.50;;;;;;4991390;28;20456;-49
2022/09/10 05:17:43;;;;;;;10.83;10.53;;;16.40;49.70;;;;;;4991076;28;20417;-47
2022/09/10 05:20:09;;;;;;;11.13;10.83;;;16.40;48.70;;;;;;4991253;28;20709;-48
2022/09/10 05:22:35;;;;;;;11.70;11.20;;;16.40;49.20;;;;;;4991125;28;20590;-46
2022/09/10 05:25:02;;;;;;;10.97;10.67;;;16.30;48.90;;;;;;4991229;28;20440;-47
2022/09/10 05:27:27;;;;;;;12.00;11.47;;;16.30;50.30;;;;;;4991032;28;20871;-46
2022/09/10 05:29:53;;;;;;;10.00;9.70;;;16.30;49.60;;;;;;5007204;28;20414;-49
2022/09/10 05:32:19;;;;;;;10.57;10.27;;;16.40;49.70;;;;;;4974766;28;20181;-46
2022/09/10 05:34:47;;;;;;;11.23;10.93;;;16.40;48.90;;;;;;4990987;28;20178;-50
2022/09/10 05:37:17;;;;;;;11.77;11.37;;;16.40;49.40;;;;;;4991053;28;20726;-46
2022/09/10 05:39:43;;;;;;;12.00;11.40;;;16.50;48.90;;;;;;5007444;28;20925;-50
2022/09/10 05:42:09;;;;;;;11.33;10.93;;;16.70;49.10;;;;;;4991015;28;20413;-50
2022/09/10 05:44:34;;;;;;;11.13;10.83;;;16.70;48.20;;;;;;4990982;28;20445;-53
2022/09/10 05:47:00;;;;;;;11.87;11.30;;;16.80;48.30;;;;;;4990993;28;20209;-47
2022/09/10 05:49:26;;;;;;;11.50;11.10;;;16.80;47.60;;;;;;4991037;28;20659;-49
2022/09/10 05:51:52;;;;;;;11.40;11.10;;;16.60;48.20;;;;;;4990387;28;20185;-48
2022/09/10 05:54:17;;;;;;;10.60;10.30;;;16.60;47.70;;;;;;4990768;28;20190;-48
2022/09/10 05:56:43;;;;;;;10.80;10.50;;;16.60;48.70;;;;;;4991227;28;20324;-49
2022/09/10 05:59:09;;;;;;;11.27;10.97;;;16.60;49.70;;;;;;4990910;28;20182;-47
2022/09/10 06:01:36;;;;;;;11.20;10.90;;;16.60;49.90;;;;;;4990692;28;20554;-47
2022/09/10 06:04:03;;;;;;;12.07;11.33;;;16.50;49.10;;;;;;4990970;28;20917;-51
2022/09/10 06:06:28;;;;;;;11.40;11.00;;;16.50;49.70;;;;;;4990688;28;20825;-52
2022/09/10 06:08:54;;;;;;;11.90;11.50;;;16.50;50.10;;;;;;4990656;28;20424;-51
2022/09/10 06:11:20;;;;;;;12.00;11.50;;;16.50;49.90;;;;;;4992678;28;20185;-53
2022/09/10 06:13:46;;;;;;;12.20;11.50;;;16.40;49.70;;;;;;4994194;28;20464;-49
2022/09/10 06:16:12;;;;;;;12.20;11.80;;;16.40;50.00;;;;;;4994355;28;20448;-50
2022/09/10 06:18:38;;;;;;;11.83;11.43;;;16.40;49.40;;;;;;4993723;28;20205;-50
2022/09/10 06:21:06;;;;;;;11.40;11.10;;;16.40;50.20;;;;;;4994230;28;20439;-51
2022/09/10 06:23:32;;;;;;;11.73;11.40;;;16.40;48.90;;;;;;4993315;28;20182;-49
2022/09/10 06:26:00;;;;;;;11.53;11.23;;;16.40;48.90;;;;;;4993934;28;20463;-49
2022/09/10 06:28:27;;;;;;;11.23;10.90;;;16.40;49.10;;;;;;4994246;28;20424;-48
2022/09/10 06:30:53;;;;;;;12.07;11.47;;;16.40;48.90;;;;;;4993627;28;20423;-48
2022/09/10 06:33:18;;;;;;;11.20;10.80;;;16.50;48.70;;;;;;4993146;28;20508;-50
2022/09/10 06:35:52;;;;;;;11.27;10.97;;;16.50;49.00;;;;;;4993018;28;20181;-49
2022/09/10 06:38:18;;;;;;;11.47;11.07;;;16.60;49.00;;;;;;4993144;28;20178;-48
2022/09/10 06:40:54;;;;;;;11.70;11.30;;;16.60;48.20;;;;;;4992337;28;20430;-52
2022/09/10 06:43:22;;;;;;;11.83;11.43;;;16.60;47.80;;;;;;4993716;28;20193;-50
2022/09/10 06:45:51;;;;;;;11.90;11.60;;;16.60;47.90;;;;;;4993845;28;20453;-53
2022/09/10 06:48:21;;;;;;;12.07;11.47;;;16.50;47.30;;;;;;4993818;28;20409;-49
2022/09/10 06:50:54;;;;;;;12.20;11.70;;;16.50;47.30;;;;;;4993642;28;20918;-48
2022/09/10 06:53:21;;;;;;;12.10;11.60;;;16.50;47.30;;;;;;4994286;28;20767;-47
2022/09/10 06:55:51;;;;;;;10.83;10.33;;;16.60;48.20;;;;;;4993858;28;20417;-52
2022/09/10 06:58:18;;;;;;;10.97;10.67;;;16.50;47.20;;;;;;4994020;28;20417;-52
2022/09/10 07:00:48;;;;;;;12.10;11.60;;;16.60;47.40;;;;;;4993604;28;20989;-51
2022/09/10 07:03:15;;;;;;;11.70;11.30;;;16.60;46.80;;;;;;4994264;28;20417;-51
2022/09/10 07:05:42;;;;;;;12.20;11.70;;;16.70;47.10;;;;;;4993735;28;20456;-52
2022/09/10 07:08:11;;;;;;;11.77;11.37;;;16.80;46.80;;;;;;4994006;28;20416;-51
2022/09/10 07:10:37;;;;;;;12.00;11.60;;;16.80;46.00;;;;;;4993502;28;20423;-50
2022/09/10 07:13:03;;;;;;;11.30;10.80;;;16.70;46.60;;;;;;4993886;28;20412;-47
2022/09/10 07:15:29;;;;;;;12.53;11.93;;;16.70;46.20;;;;;;4993517;28;20437;-51
2022/09/10 07:17:55;;;;;;;11.30;10.97;;;16.80;46.20;;;;;;4993748;28;20413;-49
2022/09/10 07:20:25;;;;;;;12.00;11.60;;;16.80;46.40;;;;;;4993501;28;20174;-48
2022/09/10 07:22:52;;;;;;;11.73;11.30;;;16.80;45.70;;;;;;4992351;28;20182;-48
2022/09/10 07:25:18;;;;;;;11.90;11.50;;;16.90;46.60;;;;;;4993753;28;20416;-49
2022/09/10 07:27:44;;;;;;;11.80;11.40;;;16.90;46.50;;;;;;4992657;28;20464;-50
2022/09/10 07:30:11;;;;;;;10.77;10.43;;;16.80;46.20;;;;;;4992924;28;20398;-50
2022/09/10 07:32:37;;;;;;;12.37;11.87;;;16.90;46.70;;;;;;4992233;28;20471;-47
2022/09/10 07:35:03;;;;;;;10.63;10.33;;;16.80;46.20;;;;;;4992471;28;20410;-47
2022/09/10 07:37:29;;;;;;;10.33;10.03;;;16.80;46.80;;;;;;4992733;28;20825;-48
2022/09/10 07:39:55;;;;;;;10.77;10.27;;;16.80;46.90;;;;;;4992994;28;20453;-50
2022/09/10 07:42:20;;;;;;;11.43;11.13;;;16.80;46.40;;;;;;4992250;28;20189;-52
2022/09/10 07:44:46;;;;;;;10.43;10.13;;;16.60;47.40;;;;;;4994654;28;20650;-50
2022/09/10 07:47:12;;;;;;;11.30;10.70;;;16.70;47.50;;;;;;4993328;28;20236;-48
2022/09/10 07:49:37;;;;;;;10.47;10.17;;;16.80;47.60;;;;;;4993469;28;20170;-48
2022/09/10 07:52:03;;;;;;;10.80;10.50;;;16.80;46.50;;;;;;4993174;28;20630;-48
2022/09/10 07:54:29;;;;;;;10.77;10.43;;;16.90;46.20;;;;;;4993387;28;20193;-53
2022/09/10 07:56:54;;;;;;;9.93;9.63;;;16.90;46.20;;;;;;4993140;28;20182;-53
2022/09/10 07:59:20;;;;;;;10.50;10.00;;;17.00;46.20;;;;;;4993048;28;20281;-52
2022/09/10 08:01:46;;;;;;;11.37;10.97;;;17.10;45.90;;;;;;4993200;28;20177;-51
2022/09/10 08:04:12;;;;;;;10.07;9.77;;;17.20;44.70;;;;;;4992958;28;20240;-50
2022/09/10 08:06:37;;;;;;;11.00;10.40;;;17.20;44.20;;;;;;4993106;28;20464;-48
2022/09/10 08:09:05;;;;;;;11.20;10.70;;;17.20;44.30;;;;;;4992816;28;20170;-48
2022/09/10 08:11:33;;;;;;;11.20;10.70;;;17.30;44.20;;;;;;4991893;28;20174;-48
2022/09/10 08:13:59;;;;;;;10.90;10.50;;;17.40;43.80;;;;;;4992574;28;20436;-49
2022/09/10 08:16:26;;;;;;;10.67;10.27;;;17.50;44.00;;;;;;4992606;28;20451;-52
2022/09/10 08:18:56;;;;;;;10.60;10.20;;;17.50;43.60;;;;;;4992320;28;20472;-51
2022/09/10 08:21:23;;;;;;;10.07;9.77;;;17.50;42.70;;;;;;4990999;28;20433;-49
2022/09/10 08:23:51;;;;;;;10.57;10.07;;;17.60;43.20;;;;;;4991726;28;20429;-50
2022/09/10 08:26:17;;;;;;;11.90;11.50;;;17.60;42.30;;;;;;4992441;28;20473;-48
2022/09/10 08:28:43;;;;;;;10.37;10.07;;;17.60;41.60;;;;;;4991386;28;20420;-48
2022/09/10 08:31:11;;;;;;;10.03;9.63;;;17.60;42.20;;;;;;4991461;28;20417;-48
2022/09/10 08:33:38;;;;;;;9.80;9.50;;;17.80;41.90;;;;;;4990214;28;20636;-51
2022/09/10 08:36:06;;;;;;;10.73;10.33;;;17.90;41.80;;;;;;4991605;28;20416;-48
2022/09/10 08:38:35;;;;;;;10.60;10.10;;;17.90;40.30;;;;;;4991957;28;20839;-49
2022/09/10 08:41:22;;;;;;;10.73;10.43;;;18.00;39.30;;;;;;4992075;28;20409;-49
2022/09/10 08:43:51;;;;;;;10.60;10.20;;;18.10;40.90;;;;;;4991941;28;20421;-50
2022/09/10 08:46:32;;;;;;;10.80;10.50;;;18.10;39.30;;;;;;4991634;28;20464;-50
2022/09/10 08:49:08;;;;;;;11.83;10.90;;;18.10;39.10;;;;;;4990671;28;20493;-50
2022/09/10 08:51:54;;;;;;;10.67;10.37;;;18.10;37.90;;;;;;4990110;28;20914;-49
2022/09/10 08:54:36;;;;;;;10.87;10.47;;;18.10;37.50;;;;;;4990710;28;20409;-50
2022/09/10 08:57:06;;;;;;;11.50;10.90;;;18.00;38.00;;;;;;4991924;28;20492;-50
2022/09/10 08:59:43;;;;;;;10.63;10.13;;;18.00;37.00;;;;;;4990431;28;20422;-50
2022/09/10 09:02:32;;;;;;;10.70;10.20;;;18.10;38.10;;;;;;4990304;28;20424;-52
2022/09/10 09:05:13;;;;;;;11.30;10.90;;;18.20;37.50;;;;;;4991662;28;20425;-52
2022/09/10 09:07:39;;;;;;;10.90;10.40;;;18.20;37.50;;;;;;4989751;28;20471;-51
2022/09/10 09:10:17;;;;;;;11.03;10.63;;;18.30;37.30;;;;;;4984789;28;20942;-49
2022/09/10 09:13:00;;;;;;;10.97;10.50;;;18.40;37.20;;;;;;4982501;28;20417;-48
2022/09/10 09:15:37;;;;;;;11.27;10.40;;;18.50;35.70;;;;;;4988768;28;20430;-50
2022/09/10 09:18:41;;;;;;;11.10;10.70;;;18.60;34.40;;;;;;4990323;28;20436;-50
2022/09/10 09:21:16;;;;;;;11.93;11.37;;;18.70;33.50;;;;;;4991379;28;20436;-53
2022/09/10 09:23:55;;;;;;;12.47;11.40;;;18.60;33.90;;;;;;4992485;28;20401;-49
2022/09/10 09:26:34;;;;;;;11.40;10.80;;;18.70;32.10;;;;;;4991208;28;20492;-49
2022/09/10 09:29:13;;;;;;;11.00;10.50;;;18.70;32.30;;;;;;4991233;28;20459;-53
2022/09/10 09:31:47;;;;;;;10.77;10.37;;;18.60;31.20;;;;;;4990834;28;20413;-52
2022/09/10 09:34:21;;;;;;;10.50;10.20;;;18.70;32.20;;;;;;4991358;28;20504;-50
2022/09/10 09:36:53;;;;;;;11.27;10.97;;;18.80;31.60;;;;;;4991051;28;20491;-49
2022/09/10 09:40:02;;;;;;;10.50;10.20;;;18.70;31.30;;;;;;4991039;28;20453;-50
2022/09/10 09:42:38;;;;;;;10.40;10.10;;;18.60;31.60;;;;;;4988963;28;20444;-58
2022/09/10 09:45:30;;;;;;;10.83;10.43;;;18.60;31.20;;;;;;4991296;28;20781;-53
2022/09/10 09:47:57;;;;;;;11.73;11.10;;;18.60;31.50;;;;;;4995061;28;20491;-48
2022/09/10 09:50:23;;;;;;;11.17;10.43;;;18.50;31.30;;;;;;4995128;28;20524;-47
2022/09/10 09:52:54;;;;;;;11.90;11.43;;;18.50;31.50;;;;;;4995055;28;20508;-48
2022/09/10 09:55:45;;;;;;;11.40;11.00;;;18.50;31.70;;;;;;4995135;28;20246;-48
2022/09/10 09:58:23;;;;;;;11.00;10.60;;;18.60;31.80;;;;;;4989885;28;20868;-48
2022/09/10 10:01:08;;;;;;;11.40;11.00;;;18.60;32.00;;;;;;4993861;28;20436;-48
2022/09/10 10:03:43;;;;;;;11.57;11.17;;;18.70;32.10;;;;;;4988752;28;20466;-49
2022/09/10 10:06:10;;;;;;;11.57;11.17;;;18.70;31.70;;;;;;4975621;28;20493;-51
2022/09/10 10:08:43;;;;;;;10.70;10.30;;;18.70;31.60;;;;;;4979935;28;20413;-49
2022/09/10 10:11:13;;;;;;;11.90;11.60;;;18.70;31.30;;;;;;4994599;28;20475;-49
2022/09/10 10:13:44;;;;;;;12.57;11.90;;;18.80;31.70;;;;;;4991253;28;20793;-49
2022/09/10 10:16:25;;;;;;;11.43;10.83;;;18.70;32.00;;;;;;4980280;28;20444;-48
2022/09/10 10:18:51;;;;;;;11.90;11.50;;;18.80;31.20;;;;;;4994564;28;20426;-49
2022/09/10 10:21:31;;;;;;;11.23;10.93;;;18.70;31.80;;;;;;4994555;28;20488;-48
2022/09/10 10:23:57;;;;;;;11.37;10.97;;;18.60;31.80;;;;;;4994453;28;20217;-50
2022/09/10 10:26:29;;;;;;;11.77;11.17;;;18.60;31.20;;;;;;4994422;28;21076;-48
2022/09/10 10:28:54;;;;;;;12.10;11.70;;;18.50;31.90;;;;;;4994326;28;20929;-48
2022/09/10 10:31:20;;;;;;;11.70;11.20;;;18.60;32.20;;;;;;4990875;28;20418;-49
2022/09/10 10:34:07;;;;;;;11.43;10.80;;;18.70;31.50;;;;;;4974859;28;20871;-49
2022/09/10 10:36:52;;;;;;;11.83;11.43;;;18.80;31.40;;;;;;4974946;28;20192;-50
2022/09/10 10:39:36;;;;;;;12.23;11.73;;;18.80;31.40;;;;;;4988795;28;20432;-49
2022/09/10 10:42:14;;;;;;;11.50;11.00;;;18.80;31.40;;;;;;4992232;28;20410;-48
2022/09/10 10:44:58;;;;;;;11.57;11.27;;;18.80;31.00;;;;;;4991945;28;20515;-49
2022/09/10 10:47:53;;;;;;;10.80;10.50;;;19.00;31.00;;;;;;4994491;28;20871;-48
2022/09/10 10:50:29;;;;;;;11.10;10.60;;;19.00;31.10;;;;;;4993920;28;20409;-49
2022/09/10 10:53:25;;;;;;;11.50;11.10;;;19.10;30.80;;;;;;4994022;28;20897;-49
2022/09/10 10:55:55;;;;;;;11.20;10.90;;;19.30;30.60;;;;;;4993834;28;20432;-48
2022/09/10 10:58:37;;;;;;;11.67;11.17;;;19.50;29.60;;;;;;4994099;28;20420;-49
2022/09/10 11:01:12;;;;;;;11.13;10.83;;;19.70;29.30;;;;;;4993666;28;20429;-50
2022/09/10 11:03:45;;;;;;;10.60;10.20;;;19.70;28.90;;;;;;4993786;28;20420;-49
2022/09/10 11:06:20;;;;;;;10.97;10.57;;;19.70;28.10;;;;;;4993893;28;20834;-48
2022/09/10 11:09:00;;;;;;;10.40;9.93;;;19.50;28.40;;;;;;4993822;28;20494;-49
2022/09/10 11:11:55;;;;;;;11.03;10.67;;;19.60;27.60;;;;;;4993464;28;20515;-49
2022/09/10 11:14:47;;;;;;;10.57;10.27;;;19.50;27.40;;;;;;4992339;28;20492;-48
2022/09/10 11:17:16;;;;;;;10.20;9.90;;;19.50;27.30;;;;;;4993509;28;20531;-51
2022/09/10 11:20:17;;;;;;;10.53;10.03;;;19.50;28.00;;;;;;4993560;28;20432;-50
2022/09/10 11:22:50;;;;;;;10.17;9.67;;;19.50;27.50;;;;;;4993438;28;20515;-49
2022/09/10 11:25:33;;;;;;;10.67;10.07;;;19.50;26.70;;;;;;4993494;28;20516;-48
2022/09/10 11:28:14;;;;;;;11.07;10.57;;;19.60;26.30;;;;;;4980382;28;20426;-49
2022/09/10 11:30:45;;;;;;;10.70;10.30;;;19.70;27.80;;;;;;4973751;28;20929;-49
2022/09/10 11:33:40;;;;;;;10.67;10.00;;;19.80;26.50;;;;;;4973950;28;20836;-48
2022/09/10 11:36:26;;;;;;;10.40;9.80;;;19.90;25.20;;;;;;4974106;28;20810;-49
2022/09/10 11:38:58;;;;;;;10.43;10.13;;;19.90;24.50;;;;;;4973625;28;20414;-49
2022/09/10 11:41:31;;;;;;;9.80;9.50;;;19.80;24.30;;;;;;4986631;28;20834;-52
2022/09/10 11:44:15;;;;;;;9.60;9.20;;;19.70;24.30;;;;;;4992729;28;20425;-51
2022/09/10 11:46:55;;;;;;;10.53;10.23;;;19.70;24.60;;;;;;4992900;28;20472;-51
2022/09/10 11:49:53;;;;;;;9.90;9.60;;;19.80;25.00;;;;;;4993004;28;20527;-51
2022/09/10 11:52:21;;;;;;;10.40;10.10;;;19.90;25.10;;;;;;4993055;28;20516;-51
2022/09/10 11:54:47;;;;;;;10.43;10.00;;;19.80;24.70;;;;;;4992649;28;20428;-50
2022/09/10 11:57:38;;;;;;;10.60;10.30;;;19.70;25.50;;;;;;4993001;28;20421;-51
2022/09/10 12:00:16;;;;;;;10.97;10.50;;;19.70;25.70;;;;;;4973653;28;20190;-50
2022/09/10 12:03:09;;;;;;;10.87;10.20;;;19.70;26.40;;;;;;4977727;28;20421;-50
2022/09/10 12:06:22;;;;;;;11.60;11.20;;;19.80;27.90;;;;;;4992704;28;20752;-51
2022/09/10 12:09:10;;;;;;;10.60;10.20;;;19.80;28.70;;;;;;4983850;28;20425;-52
2022/09/10 12:11:55;;;;;;;12.60;12.10;;;19.80;29.60;;;;;;4992316;28;20413;-49
2022/09/10 12:14:20;;;;;;;12.00;11.60;;;19.70;28.60;;;;;;4992391;28;20479;-52
2022/09/10 12:17:14;;;;;;;10.97;10.50;;;19.70;29.30;;;;;;4992218;28;20441;-48
2022/09/10 12:19:45;;;;;;;11.50;10.97;;;19.70;29.70;;;;;;4992227;28;20665;-48
2022/09/10 12:22:23;;;;;;;11.53;11.03;;;19.70;26.90;;;;;;4992494;28;20449;-46
2022/09/10 12:24:55;;;;;;;11.80;11.40;;;19.70;28.00;;;;;;4992149;28;20471;-49
2022/09/10 12:27:42;;;;;;;11.60;11.20;;;19.80;28.80;;;;;;4992525;28;20488;-49
2022/09/10 12:30:26;;;;;;;11.73;11.10;;;19.70;26.80;;;;;;4992082;28;20850;-48
2022/09/10 12:32:59;;;;;;;11.40;11.00;;;19.70;25.60;;;;;;4993479;28;20417;-49
2022/09/10 12:35:29;;;;;;;12.53;11.93;;;19.70;25.00;;;;;;4992171;28;20503;-51
2022/09/10 12:38:32;;;;;;;11.27;10.87;;;19.70;25.10;;;;;;4992051;28;20429;-50
2022/09/10 12:41:01;;;;;;;11.40;10.90;;;19.70;25.60;;;;;;4991601;28;20427;-52
2022/09/10 12:43:39;;;;;;;11.10;10.70;;;19.80;25.60;;;;;;4976361;28;20937;-50
2022/09/10 12:46:08;;;;;;;11.90;11.40;;;19.80;25.40;;;;;;4991762;28;20799;-52
2022/09/10 12:48:38;;;;;;;11.57;10.97;;;19.80;25.40;;;;;;4992033;28;20910;-52
2022/09/10 12:51:27;;;;;;;10.80;10.50;;;19.80;25.70;;;;;;4991577;28;20784;-50